createdAt,value
2022-11-05T00:03:34.782Z,2.53
2022-11-05T00:08:35.966Z,3.30
2022-11-05T00:13:39.529Z,3.33
2022-11-05T00:18:25.164Z,2.77
2022-11-05T00:23:26.243Z,2.20
2022-11-05T00:28:09.737Z,1.43
2022-11-05T00:32:54.220Z,1.27
2022-11-05T00:37:39.346Z,1.10
2022-11-05T00:42:40.180Z,1.37
2022-11-05T00:47:41.220Z,2.37
2022-11-05T00:52:38.474Z,2.80
2022-11-05T00:57:23.363Z,1.20
2022-11-05T01:02:07.113Z,1.50
2022-11-05T01:06:50.960Z,1.50
2022-11-05T01:11:34.517Z,1.20
2022-11-05T01:16:19.457Z,2.13
2022-11-05T01:21:12.075Z,1.10
2022-11-05T01:25:55.706Z,1.20
2022-11-05T01:30:39.898Z,3.07
2022-11-05T01:35:25.202Z,1.13
2022-11-05T01:40:10.555Z,2.17
2022-11-05T01:45:00.369Z,1.33
2022-11-05T01:49:44.019Z,1.10
2022-11-05T01:54:33.390Z,1.20
2022-11-05T01:59:20.402Z,1.30
2022-11-05T02:04:07.913Z,1.07
2022-11-05T02:08:58.572Z,1.40
2022-11-05T02:13:43.502Z,2.27
2022-11-05T02:18:38.673Z,0.73
2022-11-05T02:24:03.004Z,1.63
2022-11-05T02:29:18.104Z,1.93
2022-11-05T02:34:12.629Z,1.60
2022-11-05T02:39:09.737Z,1.83
2022-11-05T02:44:06.354Z,2.47
2022-11-05T02:48:57.065Z,2.33
2022-11-05T02:53:47.926Z,0.90
2022-11-05T02:58:31.829Z,1.50
2022-11-05T03:03:24.076Z,0.80
2022-11-05T03:08:15.203Z,0.90
2022-11-05T03:13:17.402Z,0.50
2022-11-05T03:18:09.834Z,1.50
2022-11-05T03:22:58.953Z,2.13
2022-11-05T03:27:47.415Z,1.00
2022-11-05T03:32:35.431Z,1.40
2022-11-05T03:37:21.951Z,0.80
2022-11-05T03:42:09.070Z,1.37
2022-11-05T03:46:54.329Z,1.17
2022-11-05T03:51:44.458Z,2.47
2022-11-05T03:56:33.933Z,1.17
2022-11-05T04:01:17.845Z,0.97
2022-11-05T04:06:19.189Z,1.07
2022-11-05T04:11:21.456Z,0.80
2022-11-05T04:16:22.456Z,1.00
2022-11-05T04:21:23.944Z,1.03
2022-11-05T04:26:08.818Z,0.97
2022-11-05T04:30:52.234Z,1.60
2022-11-05T04:35:37.665Z,2.37
2022-11-05T04:40:21.198Z,3.07
2022-11-05T04:45:06.822Z,1.50
2022-11-05T04:49:50.456Z,1.43
2022-11-05T04:54:33.858Z,1.80
2022-11-05T04:59:17.484Z,3.70
2022-11-05T05:04:02.359Z,4.07
2022-11-05T05:08:45.841Z,5.20
2022-11-05T05:13:29.294Z,5.10
2022-11-05T05:18:12.811Z,4.43
2022-11-05T05:22:57.820Z,2.67
2022-11-05T05:27:41.252Z,2.40
2022-11-05T05:32:24.987Z,1.80
2022-11-05T05:37:08.771Z,2.90
2022-11-05T05:41:53.643Z,2.83
2022-11-05T05:46:37.059Z,2.53
2022-11-05T05:51:21.377Z,4.10
2022-11-05T05:56:05.872Z,2.20
2022-11-05T06:00:50.834Z,3.33
2022-11-05T06:05:34.282Z,2.23
2022-11-05T06:10:18.135Z,3.67
2022-11-05T06:15:01.630Z,2.50
2022-11-05T06:19:46.679Z,3.40
2022-11-05T06:24:30.296Z,4.10
2022-11-05T06:29:13.755Z,6.20
2022-11-05T06:33:57.440Z,7.00
2022-11-05T06:38:42.323Z,4.37
2022-11-05T06:43:25.825Z,7.33
2022-11-05T06:48:09.450Z,7.73
2022-11-05T06:52:56.948Z,6.60
2022-11-05T06:57:41.883Z,4.27
2022-11-05T07:02:25.434Z,5.73
2022-11-05T07:07:09.216Z,5.73
2022-11-05T07:11:52.918Z,4.80
2022-11-05T07:16:37.785Z,7.17
2022-11-05T07:21:21.284Z,6.07
2022-11-05T07:26:05.012Z,5.43
2022-11-05T07:30:49.548Z,3.67
2022-11-05T07:35:34.431Z,2.80
2022-11-05T07:40:19.631Z,3.43
2022-11-05T07:45:03.153Z,2.47
2022-11-05T07:49:46.750Z,3.00
2022-11-05T07:54:31.632Z,2.90
2022-11-05T07:59:15.352Z,5.33
2022-11-05T08:03:58.863Z,3.47
2022-11-05T08:08:42.739Z,1.63
2022-11-05T08:13:27.698Z,2.10
2022-11-05T08:18:13.524Z,2.77
2022-11-05T08:22:57.128Z,4.27
2022-11-05T08:27:40.930Z,4.07
2022-11-05T08:32:25.779Z,2.83
2022-11-05T08:37:09.430Z,2.87
2022-11-05T08:41:52.955Z,2.37
2022-11-05T08:46:41.442Z,3.33
2022-11-05T08:51:26.812Z,2.27
2022-11-05T08:56:10.632Z,1.77
2022-11-05T09:00:54.366Z,2.10
2022-11-05T09:05:39.984Z,2.27
2022-11-05T09:10:25.205Z,5.30
2022-11-05T09:15:09.882Z,2.83
2022-11-05T09:19:53.505Z,4.30
2022-11-05T09:24:36.987Z,6.50
2022-11-05T09:29:22.178Z,4.30
2022-11-05T09:34:05.697Z,7.30
2022-11-05T09:38:49.156Z,4.97
2022-11-05T09:43:37.782Z,5.87
2022-11-05T09:48:26.278Z,5.93
2022-11-05T09:53:12.563Z,6.17
2022-11-05T09:58:00.794Z,4.07
2022-11-05T10:02:49.673Z,6.63
2022-11-05T10:07:43.651Z,2.83
2022-11-05T10:12:32.486Z,7.47
2022-11-05T10:17:21.520Z,4.03
2022-11-05T10:22:13.338Z,5.07
2022-11-05T10:26:58.978Z,5.80
2022-11-05T10:31:43.660Z,2.47
2022-11-05T10:36:29.673Z,2.37
2022-11-05T10:41:32.605Z,2.63
2022-11-05T10:46:29.961Z,4.53
2022-11-05T10:51:15.053Z,3.80
2022-11-05T10:55:59.606Z,4.30
2022-11-05T11:01:20.644Z,4.13
2022-11-05T11:06:07.969Z,3.10
2022-11-05T11:10:53.279Z,3.63
2022-11-05T11:15:37.592Z,0.70
2022-11-05T11:20:27.904Z,2.00
2022-11-05T11:25:27.120Z,0.63
2022-11-05T11:30:19.937Z,1.23
2022-11-05T11:35:04.081Z,2.90
2022-11-05T11:39:51.570Z,1.40
2022-11-05T11:44:44.515Z,0.50
2022-11-05T11:49:33.583Z,0.77
2022-11-05T11:54:23.905Z,0.80
2022-11-05T11:59:35.091Z,1.53
2022-11-05T12:04:49.490Z,2.13
2022-11-05T12:09:51.461Z,1.20
2022-11-05T12:14:46.232Z,3.60
2022-11-05T12:19:45.948Z,0.43
2022-11-05T12:24:54.585Z,0.83
2022-11-05T12:29:51.189Z,0.90
2022-11-05T12:34:52.025Z,2.43
2022-11-05T12:39:50.460Z,6.53
2022-11-05T12:44:49.477Z,3.60
2022-11-05T12:49:44.225Z,1.07
2022-11-05T12:54:45.592Z,0.80
2022-11-05T12:59:35.850Z,3.17
2022-11-05T13:04:30.596Z,0.70
2022-11-05T13:09:19.970Z,1.40
2022-11-05T13:14:11.418Z,2.40
2022-11-05T13:19:02.955Z,1.77
2022-11-05T13:23:51.400Z,2.07
2022-11-05T13:28:47.398Z,1.27
2022-11-05T13:33:35.097Z,1.27
2022-11-05T13:38:42.170Z,0.87
2022-11-05T13:44:01.326Z,1.73
2022-11-05T13:49:22.379Z,1.23
2022-11-05T13:54:33.381Z,1.53
2022-11-05T13:59:53.802Z,1.90
2022-11-05T14:04:42.949Z,1.00
2022-11-05T14:09:28.661Z,0.73
2022-11-05T14:14:21.530Z,1.23
2022-11-05T14:19:31.185Z,1.47
2022-11-05T14:24:40.282Z,0.93
2022-11-05T14:29:26.257Z,1.00
2022-11-05T14:34:22.623Z,1.07
2022-11-05T14:39:33.144Z,1.73
2022-11-05T14:44:17.196Z,1.30
2022-11-05T14:49:09.504Z,2.27
2022-11-05T14:54:02.573Z,1.87
2022-11-05T14:58:48.396Z,2.90
2022-11-05T15:04:07.624Z,1.40
2022-11-05T15:09:05.313Z,2.13
2022-11-05T15:13:59.127Z,1.87
2022-11-05T15:18:47.213Z,2.23
2022-11-05T15:23:41.030Z,1.83
2022-11-05T15:28:36.311Z,2.93
2022-11-05T15:33:24.161Z,2.50
2022-11-05T15:38:27.839Z,2.97
2022-11-05T15:43:21.078Z,4.50
2022-11-05T15:48:14.899Z,5.87
2022-11-05T15:53:20.761Z,3.40
2022-11-05T15:58:08.244Z,5.07
2022-11-05T16:02:56.539Z,10.53
2022-11-05T16:07:44.322Z,3.53
2022-11-05T16:12:33.924Z,2.60
2022-11-05T16:17:22.432Z,3.53
2022-11-05T16:22:07.380Z,3.87
2022-11-05T16:27:04.184Z,4.10
2022-11-05T16:31:54.632Z,4.03
2022-11-05T16:36:38.996Z,3.27
2022-11-05T16:41:24.355Z,3.23
2022-11-05T16:46:11.713Z,2.10
2022-11-05T16:50:57.948Z,2.83
2022-11-05T16:55:45.067Z,2.73
2022-11-05T17:00:30.366Z,3.47
2022-11-05T17:05:23.712Z,4.53
2022-11-05T17:10:11.142Z,3.93
2022-11-05T17:14:56.436Z,6.23
2022-11-05T17:19:42.986Z,4.07
2022-11-05T17:24:28.102Z,4.90
2022-11-05T17:29:14.276Z,6.80
2022-11-05T17:33:59.518Z,7.37
2022-11-05T17:38:44.714Z,7.10
2022-11-05T17:43:30.556Z,5.27
2022-11-05T17:48:17.942Z,6.33
2022-11-05T17:53:02.416Z,10.63
2022-11-05T17:57:49.055Z,6.20
2022-11-05T18:02:34.612Z,6.60
2022-11-05T18:07:20.733Z,7.40
2022-11-05T18:12:05.435Z,7.93
2022-11-05T18:16:50.464Z,8.27
2022-11-05T18:21:35.340Z,8.73
2022-11-05T18:26:21.575Z,5.50
2022-11-05T18:31:08.448Z,7.67
2022-11-05T18:35:53.378Z,5.53
2022-11-05T18:40:38.076Z,15.47
2022-11-05T18:45:29.729Z,8.67
2022-11-05T18:50:15.514Z,8.77
2022-11-05T18:55:02.045Z,14.70
2022-11-05T18:59:47.673Z,11.53
2022-11-05T19:04:34.206Z,15.17
2022-11-05T19:09:22.653Z,20.73
2022-11-05T19:14:08.009Z,42.40
2022-11-05T19:18:53.051Z,25.43
2022-11-05T19:23:40.130Z,14.90
2022-11-05T19:28:25.496Z,27.33
2022-11-05T19:33:11.764Z,41.73
2022-11-05T19:37:57.302Z,52.27
2022-11-05T19:42:44.280Z,29.00
2022-11-05T19:47:29.499Z,19.50
2022-11-05T19:52:14.397Z,15.50
2022-11-05T19:56:58.859Z,12.37
2022-11-05T20:01:45.760Z,13.90
2022-11-05T20:06:33.775Z,31.50
2022-11-05T20:11:19.114Z,29.17
2022-11-05T20:16:05.624Z,11.70
2022-11-05T20:21:02.401Z,15.83
2022-11-05T20:25:47.413Z,17.03
2022-11-05T20:30:33.644Z,13.63
2022-11-05T20:35:19.143Z,17.93
2022-11-05T20:40:05.453Z,9.43
2022-11-05T20:44:51.893Z,10.73
2022-11-05T20:49:36.344Z,19.17
2022-11-05T20:54:22.259Z,10.60
2022-11-05T20:59:08.637Z,11.17
2022-11-05T21:03:53.668Z,7.80
2022-11-05T21:08:38.909Z,8.97
2022-11-05T21:13:23.534Z,33.13
2022-11-05T21:18:23.216Z,26.33
2022-11-05T21:23:08.915Z,10.43
2022-11-05T21:27:55.532Z,42.10
2022-11-05T21:32:39.987Z,31.77
2022-11-05T21:37:26.787Z,17.80
2022-11-05T21:42:10.833Z,19.40
2022-11-05T21:46:59.388Z,16.33
2022-11-05T21:52:01.222Z,24.23
2022-11-05T21:57:01.365Z,9.73
2022-11-05T22:01:45.568Z,10.83
2022-11-05T22:06:29.250Z,13.33
2022-11-05T22:11:13.088Z,11.33
2022-11-05T22:15:58.506Z,13.47
2022-11-05T22:20:42.038Z,14.80
2022-11-05T22:25:25.840Z,23.73
2022-11-05T22:30:10.310Z,23.37
2022-11-05T22:34:55.389Z,22.03
2022-11-05T22:39:39.010Z,18.70
2022-11-05T22:44:22.740Z,22.33
2022-11-05T22:49:07.364Z,18.73
2022-11-05T22:53:57.950Z,13.73
2022-11-05T22:58:42.838Z,10.67
2022-11-05T23:03:27.298Z,10.57
2022-11-05T23:08:28.599Z,10.80
2022-11-05T23:13:13.566Z,13.93
2022-11-05T23:18:15.237Z,12.43
2022-11-05T23:23:17.544Z,15.80
2022-11-05T23:28:03.266Z,12.40
2022-11-05T23:32:48.797Z,9.93
2022-11-05T23:37:51.025Z,10.23
2022-11-05T23:42:52.261Z,8.00
2022-11-05T23:47:53.621Z,10.67
2022-11-05T23:52:38.522Z,9.67
2022-11-05T23:57:22.159Z,9.47
